createdAt,value
2019-01-12T00:02:21.687Z,29.03
2019-01-12T00:07:31.001Z,28.63
2019-01-12T00:12:35.070Z,26.47
2019-01-12T00:17:40.405Z,29.70
2019-01-12T00:22:44.022Z,30.63
2019-01-12T00:27:47.626Z,27.50
2019-01-12T00:32:51.433Z,25.13
2019-01-12T00:37:55.039Z,31.17
2019-01-12T00:43:03.033Z,24.50
2019-01-12T00:48:06.695Z,24.87
2019-01-12T00:53:10.566Z,25.30
2019-01-12T00:58:17.155Z,28.07
2019-01-12T01:03:20.990Z,24.00
2019-01-12T01:08:36.171Z,29.77
2019-01-12T01:13:41.461Z,24.57
2019-01-12T01:18:45.087Z,29.67
2019-01-12T01:23:48.701Z,29.97
2019-01-12T01:28:54.374Z,29.03
2019-01-12T01:34:00.571Z,31.07
2019-01-12T01:39:07.006Z,27.37
2019-01-12T01:44:16.133Z,29.43
2019-01-12T01:49:19.745Z,33.40
2019-01-12T01:54:26.329Z,24.80
2019-01-12T01:59:33.488Z,30.67
2019-01-12T02:04:40.039Z,35.70
2019-01-12T02:09:46.384Z,29.17
2019-01-12T02:14:49.997Z,30.77
2019-01-12T02:19:55.263Z,28.53
2019-01-12T02:25:00.052Z,29.17
2019-01-12T02:30:16.299Z,29.17
2019-01-12T02:35:22.725Z,27.83
2019-01-12T02:40:29.239Z,24.50
2019-01-12T02:45:38.586Z,32.67
2019-01-12T02:50:51.975Z,24.40
2019-01-12T02:56:01.611Z,24.80
2019-01-12T03:01:06.932Z,24.10
2019-01-12T03:06:10.683Z,21.50
2019-01-12T03:11:20.354Z,24.93
2019-01-12T03:16:25.844Z,28.00
2019-01-12T03:21:29.786Z,25.17
2019-01-12T03:26:35.043Z,26.70
2019-01-12T03:31:38.643Z,25.77
2019-01-12T03:36:42.628Z,27.03
2019-01-12T03:41:52.181Z,28.60
2019-01-12T03:46:57.564Z,27.77
2019-01-12T03:52:03.939Z,26.27
2019-01-12T03:57:10.240Z,28.63
2019-01-12T04:02:16.786Z,24.63
2019-01-12T04:07:20.408Z,25.10
2019-01-12T04:12:25.650Z,28.03
2019-01-12T04:17:29.269Z,24.00
2019-01-12T04:22:32.886Z,24.00
2019-01-12T04:27:39.686Z,26.63
2019-01-12T04:32:46.604Z,27.90
2019-01-12T04:37:52.969Z,26.67
2019-01-12T04:43:02.350Z,25.03
2019-01-12T04:48:06.044Z,25.37
2019-01-12T04:53:12.387Z,25.00
2019-01-12T04:58:16.271Z,23.63
2019-01-12T05:03:21.855Z,27.27
2019-01-12T05:08:31.515Z,26.53
2019-01-12T05:13:36.748Z,27.60
2019-01-12T05:18:50.969Z,25.53
2019-01-12T05:23:54.583Z,26.93
2019-01-12T05:29:02.241Z,27.03
2019-01-12T05:34:07.854Z,26.17
2019-01-12T05:39:15.155Z,28.23
2019-01-12T05:44:21.774Z,25.33
2019-01-12T05:49:30.987Z,26.10
2019-01-12T05:54:34.602Z,23.17
2019-01-12T05:59:44.259Z,24.27
2019-01-12T06:04:48.121Z,25.07
2019-01-12T06:09:54.383Z,26.57
2019-01-12T06:14:59.649Z,27.13
2019-01-12T06:20:04.668Z,26.13
2019-01-12T06:25:14.322Z,22.00
2019-01-12T06:30:18.946Z,25.20
2019-01-12T06:35:22.879Z,28.27
2019-01-12T06:40:31.141Z,22.90
2019-01-12T06:45:35.892Z,21.77
2019-01-12T06:50:45.433Z,23.77
2019-01-12T06:55:49.453Z,19.83
2019-01-12T07:00:56.009Z,26.97
2019-01-12T07:06:02.322Z,26.47
2019-01-12T07:11:07.462Z,20.90
2019-01-12T07:16:11.135Z,20.30
2019-01-12T07:21:19.381Z,22.90
2019-01-12T07:26:33.445Z,25.47
2019-01-12T07:31:32.611Z,27.97
2019-01-12T07:36:36.498Z,28.70
2019-01-12T07:41:40.147Z,31.63
2019-01-12T07:46:46.704Z,31.07
2019-01-12T07:51:53.274Z,29.30
2019-01-12T07:56:57.462Z,30.80
2019-01-12T08:02:01.141Z,28.60
2019-01-12T08:07:05.733Z,29.20
2019-01-12T08:12:09.411Z,33.60
2019-01-12T08:17:15.798Z,33.17
2019-01-12T08:22:19.391Z,36.07
2019-01-12T08:27:23.003Z,31.27
2019-01-12T08:32:28.884Z,33.00
2019-01-12T08:37:33.288Z,29.30
2019-01-12T08:42:37.738Z,35.20
2019-01-12T08:47:41.504Z,35.53
2019-01-12T08:52:45.306Z,31.43
2019-01-12T08:57:49.066Z,30.07
2019-01-12T09:02:52.720Z,29.60
2019-01-12T09:07:56.558Z,27.63
2019-01-12T09:13:00.225Z,31.00
2019-01-12T09:18:08.505Z,26.50
2019-01-12T09:23:14.617Z,28.60
2019-01-12T09:28:18.222Z,27.10
2019-01-12T09:33:21.955Z,28.03
2019-01-12T09:38:25.621Z,27.90
2019-01-12T09:43:32.197Z,28.93
2019-01-12T09:48:36.738Z,28.23
2019-01-12T09:53:40.429Z,27.03
2019-01-12T09:58:49.996Z,28.07
2019-01-12T10:03:53.640Z,27.70
2019-01-12T10:08:57.262Z,28.80
2019-01-12T10:14:00.862Z,24.03
2019-01-12T10:19:06.980Z,24.10
2019-01-12T10:24:10.668Z,25.47
2019-01-12T10:29:15.884Z,25.07
2019-01-12T10:34:22.602Z,22.87
2019-01-12T10:39:26.225Z,24.03
2019-01-12T10:44:29.847Z,28.80
2019-01-12T10:49:36.573Z,27.33
2019-01-12T10:54:40.178Z,24.63
2019-01-12T10:59:44.915Z,22.40
2019-01-12T11:04:48.560Z,24.47
2019-01-12T11:09:54.890Z,21.23
2019-01-12T11:14:58.566Z,21.27
2019-01-12T11:20:02.453Z,35.43
2019-01-12T11:25:09.546Z,23.30
2019-01-12T11:30:20.492Z,25.07
2019-01-12T11:35:24.094Z,25.87
2019-01-12T11:40:27.921Z,25.60
2019-01-12T11:45:31.556Z,25.10
2019-01-12T11:50:35.180Z,25.23
2019-01-12T11:55:39.667Z,28.63
2019-01-12T12:00:43.314Z,25.67
2019-01-12T12:05:46.930Z,29.37
2019-01-12T12:10:50.542Z,27.23
2019-01-12T12:15:54.257Z,26.53
2019-01-12T12:21:00.851Z,35.27
2019-01-12T12:26:05.405Z,28.77
2019-01-12T12:31:09.602Z,26.93
2019-01-12T12:36:16.279Z,31.50
2019-01-12T12:41:19.908Z,32.77
2019-01-12T12:46:26.534Z,29.43
2019-01-12T12:51:30.162Z,25.20
2019-01-12T12:56:33.950Z,29.70
2019-01-12T13:01:38.687Z,27.80
2019-01-12T13:06:42.382Z,23.80
2019-01-12T13:11:53.107Z,25.33
2019-01-12T13:22:12.266Z,27.17
2019-01-12T13:27:16.225Z,20.17
2019-01-12T13:32:22.743Z,25.23
2019-01-12T13:37:26.350Z,26.07
2019-01-12T13:42:29.967Z,24.70
2019-01-12T13:47:33.604Z,30.20
2019-01-12T13:52:37.414Z,25.37
2019-01-12T13:57:47.449Z,25.43
2019-01-12T14:02:46.630Z,31.13
2019-01-12T14:07:56.111Z,25.07
2019-01-12T14:12:57.521Z,26.23
2019-01-12T14:18:02.744Z,29.53
2019-01-12T14:23:09.333Z,28.50
2019-01-12T14:28:12.939Z,24.47
2019-01-12T14:33:20.776Z,28.03
2019-01-12T14:38:24.381Z,25.77
2019-01-12T14:43:29.615Z,26.33
2019-01-12T14:48:33.211Z,25.60
2019-01-12T14:53:36.818Z,24.37
2019-01-12T14:58:44.446Z,26.10
2019-01-12T15:03:47.361Z,25.57
2019-01-12T15:08:50.967Z,25.90
2019-01-12T15:13:54.765Z,24.83
2019-01-12T15:18:58.407Z,27.03
2019-01-12T15:24:02.039Z,27.30
2019-01-12T15:29:05.852Z,20.80
2019-01-12T15:34:12.674Z,24.37
2019-01-12T15:39:16.613Z,23.43
2019-01-12T15:44:20.505Z,25.57
2019-01-12T15:49:24.107Z,26.77
2019-01-12T15:54:27.835Z,26.73
2019-01-12T15:59:31.554Z,25.57
2019-01-12T16:04:35.191Z,26.50
2019-01-12T16:09:39.310Z,24.90
2019-01-12T16:14:42.930Z,22.10
2019-01-12T16:19:49.486Z,22.50
2019-01-12T16:24:54.117Z,26.67
2019-01-12T16:29:57.726Z,24.90
2019-01-12T16:45:25.348Z,18.80
2019-01-12T16:50:35.006Z,20.37
2019-01-12T16:55:41.500Z,20.40
2019-01-12T17:00:45.144Z,19.33
2019-01-12T17:05:48.758Z,15.90
2019-01-12T17:10:58.019Z,14.13
2019-01-12T17:16:01.908Z,15.40
2019-01-12T17:21:08.525Z,14.60
2019-01-12T17:26:14.862Z,13.33
2019-01-12T17:31:18.538Z,12.60
2019-01-12T17:36:25.322Z,14.53
2019-01-12T17:41:38.047Z,14.17
2019-01-12T17:46:37.357Z,15.57
2019-01-12T17:51:41.247Z,13.57
2019-01-12T17:56:47.799Z,14.73
2019-01-12T18:01:51.408Z,14.93
2019-01-12T18:06:56.640Z,14.17
2019-01-12T18:12:02.172Z,12.30
2019-01-12T18:17:08.759Z,12.33
2019-01-12T18:22:12.505Z,10.30
2019-01-12T18:27:18.122Z,11.43
2019-01-12T18:32:21.810Z,12.10
2019-01-12T18:37:25.584Z,9.30
2019-01-12T18:42:30.840Z,8.87
2019-01-12T18:47:34.603Z,10.77
2019-01-12T18:52:38.235Z,11.00
2019-01-12T18:57:42.178Z,9.73
2019-01-12T19:02:46.260Z,9.50
2019-01-12T19:07:56.542Z,8.33
2019-01-12T19:13:00.189Z,9.60
2019-01-12T19:18:03.987Z,9.10
2019-01-12T19:23:07.667Z,8.37
2019-01-12T19:28:11.275Z,9.80
2019-01-12T19:33:15.210Z,9.77
2019-01-12T19:38:27.754Z,9.37
2019-01-12T19:43:33.152Z,9.70
2019-01-12T19:48:39.762Z,10.87
2019-01-12T19:53:46.094Z,10.83
2019-01-12T19:58:56.514Z,13.50
2019-01-12T20:04:00.138Z,10.37
2019-01-12T20:09:06.915Z,14.07
2019-01-12T20:14:13.738Z,12.70
2019-01-12T20:19:19.174Z,10.13
2019-01-12T20:24:25.514Z,12.43
2019-01-12T20:29:30.738Z,8.00
2019-01-12T20:34:37.222Z,11.73
2019-01-12T20:40:18.213Z,12.43
2019-01-12T20:45:36.543Z,13.40
2019-01-12T20:50:52.089Z,9.50
2019-01-12T20:56:18.155Z,10.37
2019-01-12T21:01:39.919Z,9.53
2019-01-12T21:07:05.898Z,8.60
2019-01-12T21:12:18.261Z,9.57
2019-01-12T21:17:21.908Z,8.30
2019-01-12T21:22:27.094Z,9.00
2019-01-12T21:27:36.720Z,6.53
2019-01-12T21:32:42.306Z,5.67
2019-01-12T21:37:45.590Z,5.30
2019-01-12T21:42:53.249Z,8.33
2019-01-12T21:47:59.614Z,6.10
2019-01-12T21:53:07.593Z,6.27
2019-01-12T21:58:11.215Z,4.97
2019-01-12T22:03:18.100Z,5.33
2019-01-12T22:08:21.694Z,4.40
2019-01-12T22:13:25.311Z,4.50
2019-01-12T22:18:32.384Z,7.67
2019-01-12T22:23:37.638Z,5.03
2019-01-12T22:28:41.254Z,5.37
2019-01-12T22:33:47.903Z,4.97
2019-01-12T22:38:51.516Z,5.50
2019-01-12T22:43:58.387Z,3.40
2019-01-12T22:49:01.993Z,3.60
2019-01-12T22:54:07.306Z,2.80
2019-01-12T22:59:10.929Z,3.87
2019-01-12T23:04:17.590Z,4.00
2019-01-12T23:09:27.014Z,4.10
2019-01-12T23:14:33.122Z,3.90
2019-01-12T23:19:39.194Z,4.00
2019-01-12T23:24:49.973Z,3.40
2019-01-12T23:29:53.553Z,3.10
2019-01-12T23:35:10.864Z,3.80
2019-01-12T23:40:15.021Z,4.17
2019-01-12T23:45:18.717Z,3.20
2019-01-12T23:50:25.226Z,3.30
2019-01-12T23:55:33.027Z,2.97
